CYVM

Qikiqtarjuaq Airport

Qikiqtarjuaq, Canada
METAR CYVM 161400Z 02012KT 15SM FEW015 OVC085 M15/M16 A2934 RMK SC1AS7 SLP939
Observed Flight Rules
Dec-16 @ 14:00 UTC (50 minutes ago) Visual Flight Rules
Wind Visibility Clouds
20° at 12 knots 15 miles
  • Few at 1,500' AGL
  • Overcast at 8,500' AGL
Temperatures Readings
Current -15°C / 5°F
Dewpoint -16°C / 3°F
Humidity 92%
Altimeter 29.34" Hg
Pressure 993.9 hPa
Elevation 6
METAR CYVM 161400Z 02012KT 15SM FEW015 OVC085 M15/M16 A2934 RMK SC1AS7 SLP939
Observed Flight Rules
Dec-16 @ 14:00 UTC
(50 minutes ago)
VFR
Wind Visibility
20° at 12 knots 15 miles
Clouds
  • Few at 1,500' AGL
  • Overcast at 8,500' AGL
Temperature Dewpoint
-15°C / 5°F -16°C / 3°F
Humidity Altimeter Pressure
92% 29.34" Hg 993.9 hPa